sensor_id;sensor_type;location;lat;lon;timestamp;P1;durP1;ratioP1;P2;durP2;ratioP2
52530;SDS011;38441;52.894;6.040;2023-12-04T00:01:24;20.35;;;12.98;;
52530;SDS011;38441;52.894;6.040;2023-12-04T00:03:51;21.90;;;13.55;;
52530;SDS011;38441;52.894;6.040;2023-12-04T00:06:18;20.27;;;13.68;;
52530;SDS011;38441;52.894;6.040;2023-12-04T00:08:43;22.55;;;14.43;;
52530;SDS011;38441;52.894;6.040;2023-12-04T00:11:09;20.52;;;13.90;;
52530;SDS011;38441;52.894;6.040;2023-12-04T00:13:35;22.40;;;14.45;;
52530;SDS011;38441;52.894;6.040;2023-12-04T00:16:01;19.75;;;13.48;;
52530;SDS011;38441;52.894;6.040;2023-12-04T00:18:27;19.90;;;14.00;;
52530;SDS011;38441;52.894;6.040;2023-12-04T00:20:53;21.77;;;14.77;;
52530;SDS011;38441;52.894;6.040;2023-12-04T00:23:19;22.15;;;14.05;;
52530;SDS011;38441;52.894;6.040;2023-12-04T00:25:45;20.27;;;13.55;;
52530;SDS011;38441;52.894;6.040;2023-12-04T00:28:11;22.35;;;15.07;;
52530;SDS011;38441;52.894;6.040;2023-12-04T00:30:37;20.77;;;14.20;;
52530;SDS011;38441;52.894;6.040;2023-12-04T00:33:03;20.27;;;13.88;;
52530;SDS011;38441;52.894;6.040;2023-12-04T00:35:29;21.70;;;14.60;;
52530;SDS011;38441;52.894;6.040;2023-12-04T00:37:55;21.80;;;14.77;;
52530;SDS011;38441;52.894;6.040;2023-12-04T00:40:21;21.48;;;14.10;;
52530;SDS011;38441;52.894;6.040;2023-12-04T00:42:47;21.25;;;14.95;;
52530;SDS011;38441;52.894;6.040;2023-12-04T00:45:13;22.67;;;15.25;;
52530;SDS011;38441;52.894;6.040;2023-12-04T00:47:38;21.88;;;14.43;;
52530;SDS011;38441;52.894;6.040;2023-12-04T00:50:04;22.90;;;15.45;;
52530;SDS011;38441;52.894;6.040;2023-12-04T00:52:30;21.80;;;14.98;;
52530;SDS011;38441;52.894;6.040;2023-12-04T00:54:56;21.88;;;14.35;;
52530;SDS011;38441;52.894;6.040;2023-12-04T00:57:21;24.65;;;15.73;;
52530;SDS011;38441;52.894;6.040;2023-12-04T00:59:48;22.52;;;14.73;;
52530;SDS011;38441;52.894;6.040;2023-12-04T01:02:13;23.30;;;15.20;;
52530;SDS011;38441;52.894;6.040;2023-12-04T01:04:40;23.55;;;15.75;;
52530;SDS011;38441;52.894;6.040;2023-12-04T01:07:08;22.33;;;15.25;;
52530;SDS011;38441;52.894;6.040;2023-12-04T01:09:35;22.75;;;15.45;;
52530;SDS011;38441;52.894;6.040;2023-12-04T01:12:01;23.38;;;15.57;;
52530;SDS011;38441;52.894;6.040;2023-12-04T01:14:27;23.98;;;15.45;;
52530;SDS011;38441;52.894;6.040;2023-12-04T01:16:53;26.15;;;15.07;;
52530;SDS011;38441;52.894;6.040;2023-12-04T01:19:18;24.08;;;15.88;;
52530;SDS011;38441;52.894;6.040;2023-12-04T01:21:44;24.05;;;15.23;;
52530;SDS011;38441;52.894;6.040;2023-12-04T01:24:10;25.83;;;16.45;;
52530;SDS011;38441;52.894;6.040;2023-12-04T01:26:36;27.10;;;15.55;;
52530;SDS011;38441;52.894;6.040;2023-12-04T01:29:02;23.83;;;14.95;;
52530;SDS011;38441;52.894;6.040;2023-12-04T01:31:28;24.52;;;16.45;;
52530;SDS011;38441;52.894;6.040;2023-12-04T01:33:54;26.42;;;16.48;;
52530;SDS011;38441;52.894;6.040;2023-12-04T01:36:20;25.92;;;15.82;;
52530;SDS011;38441;52.894;6.040;2023-12-04T01:38:46;26.00;;;16.90;;
52530;SDS011;38441;52.894;6.040;2023-12-04T01:41:12;25.50;;;16.52;;
52530;SDS011;38441;52.894;6.040;2023-12-04T01:43:38;25.13;;;16.25;;
52530;SDS011;38441;52.894;6.040;2023-12-04T01:46:03;24.58;;;15.40;;
52530;SDS011;38441;52.894;6.040;2023-12-04T01:48:29;26.40;;;15.15;;
52530;SDS011;38441;52.894;6.040;2023-12-04T01:50:55;28.13;;;16.35;;
52530;SDS011;38441;52.894;6.040;2023-12-04T01:53:23;28.10;;;16.95;;
52530;SDS011;38441;52.894;6.040;2023-12-04T01:55:49;27.10;;;16.25;;
52530;SDS011;38441;52.894;6.040;2023-12-04T01:58:15;28.35;;;16.95;;
52530;SDS011;38441;52.894;6.040;2023-12-04T02:00:41;27.25;;;16.73;;
52530;SDS011;38441;52.894;6.040;2023-12-04T02:03:07;26.13;;;16.52;;
52530;SDS011;38441;52.894;6.040;2023-12-04T02:05:33;24.92;;;16.13;;
52530;SDS011;38441;52.894;6.040;2023-12-04T02:08:00;27.10;;;16.15;;
52530;SDS011;38441;52.894;6.040;2023-12-04T02:10:26;27.45;;;17.13;;
52530;SDS011;38441;52.894;6.040;2023-12-04T02:12:52;26.45;;;16.30;;
52530;SDS011;38441;52.894;6.040;2023-12-04T02:15:17;27.27;;;16.35;;
52530;SDS011;38441;52.894;6.040;2023-12-04T02:17:43;27.83;;;17.33;;
52530;SDS011;38441;52.894;6.040;2023-12-04T02:20:09;26.48;;;16.45;;
52530;SDS011;38441;52.894;6.040;2023-12-04T02:22:38;26.95;;;15.27;;
52530;SDS011;38441;52.894;6.040;2023-12-04T02:25:19;25.08;;;15.65;;
52530;SDS011;38441;52.894;6.040;2023-12-04T02:27:47;25.38;;;15.52;;
52530;SDS011;38441;52.894;6.040;2023-12-04T02:30:16;28.38;;;17.33;;
52530;SDS011;38441;52.894;6.040;2023-12-04T02:32:45;25.73;;;16.35;;
52530;SDS011;38441;52.894;6.040;2023-12-04T02:35:12;28.40;;;16.23;;
52530;SDS011;38441;52.894;6.040;2023-12-04T02:37:41;27.50;;;16.95;;
52530;SDS011;38441;52.894;6.040;2023-12-04T02:40:07;27.08;;;15.18;;
52530;SDS011;38441;52.894;6.040;2023-12-04T02:42:34;26.92;;;16.17;;
52530;SDS011;38441;52.894;6.040;2023-12-04T02:44:59;26.55;;;15.98;;
52530;SDS011;38441;52.894;6.040;2023-12-04T02:47:25;27.98;;;15.73;;
52530;SDS011;38441;52.894;6.040;2023-12-04T02:49:51;26.50;;;16.13;;
52530;SDS011;38441;52.894;6.040;2023-12-04T02:52:18;26.80;;;16.23;;
52530;SDS011;38441;52.894;6.040;2023-12-04T02:54:44;27.67;;;15.93;;
52530;SDS011;38441;52.894;6.040;2023-12-04T02:57:10;26.38;;;15.18;;
52530;SDS011;38441;52.894;6.040;2023-12-04T02:59:36;25.15;;;14.90;;
52530;SDS011;38441;52.894;6.040;2023-12-04T03:02:02;24.58;;;14.15;;
52530;SDS011;38441;52.894;6.040;2023-12-04T03:04:28;23.67;;;14.40;;
52530;SDS011;38441;52.894;6.040;2023-12-04T03:06:55;26.95;;;15.70;;
52530;SDS011;38441;52.894;6.040;2023-12-04T03:09:21;24.70;;;14.27;;
52530;SDS011;38441;52.894;6.040;2023-12-04T03:11:47;27.55;;;14.65;;
52530;SDS011;38441;52.894;6.040;2023-12-04T03:14:12;24.67;;;13.63;;
52530;SDS011;38441;52.894;6.040;2023-12-04T03:16:39;24.58;;;14.07;;
52530;SDS011;38441;52.894;6.040;2023-12-04T03:19:05;23.63;;;12.75;;
52530;SDS011;38441;52.894;6.040;2023-12-04T03:21:30;25.08;;;14.60;;
52530;SDS011;38441;52.894;6.040;2023-12-04T03:23:56;24.30;;;13.70;;
52530;SDS011;38441;52.894;6.040;2023-12-04T03:26:22;24.08;;;13.55;;
52530;SDS011;38441;52.894;6.040;2023-12-04T03:28:48;23.10;;;13.63;;
52530;SDS011;38441;52.894;6.040;2023-12-04T03:31:14;23.15;;;14.13;;
52530;SDS011;38441;52.894;6.040;2023-12-04T03:33:40;22.38;;;13.63;;
52530;SDS011;38441;52.894;6.040;2023-12-04T03:36:06;22.45;;;13.77;;
52530;SDS011;38441;52.894;6.040;2023-12-04T03:38:33;23.25;;;13.25;;
52530;SDS011;38441;52.894;6.040;2023-12-04T03:43:52;25.00;;;13.88;;
52530;SDS011;38441;52.894;6.040;2023-12-04T03:46:18;24.80;;;14.05;;
52530;SDS011;38441;52.894;6.040;2023-12-04T03:48:43;23.85;;;13.38;;
52530;SDS011;38441;52.894;6.040;2023-12-04T03:51:10;23.25;;;13.23;;
52530;SDS011;38441;52.894;6.040;2023-12-04T03:53:36;23.70;;;13.77;;
52530;SDS011;38441;52.894;6.040;2023-12-04T03:56:01;23.40;;;13.38;;
52530;SDS011;38441;52.894;6.040;2023-12-04T03:58:27;23.83;;;12.80;;
52530;SDS011;38441;52.894;6.040;2023-12-04T04:00:53;22.52;;;12.80;;
52530;SDS011;38441;52.894;6.040;2023-12-04T04:03:19;24.73;;;13.35;;
52530;SDS011;38441;52.894;6.040;2023-12-04T04:05:45;23.20;;;13.75;;
52530;SDS011;38441;52.894;6.040;2023-12-04T04:08:10;22.92;;;13.65;;
52530;SDS011;38441;52.894;6.040;2023-12-04T04:10:36;21.38;;;12.80;;
52530;SDS011;38441;52.894;6.040;2023-12-04T04:13:02;19.58;;;11.98;;
52530;SDS011;38441;52.894;6.040;2023-12-04T04:15:27;23.95;;;13.27;;
52530;SDS011;38441;52.894;6.040;2023-12-04T04:17:53;22.90;;;13.23;;
52530;SDS011;38441;52.894;6.040;2023-12-04T04:20:20;23.45;;;13.38;;
52530;SDS011;38441;52.894;6.040;2023-12-04T04:22:47;22.85;;;12.27;;
52530;SDS011;38441;52.894;6.040;2023-12-04T04:25:13;23.05;;;12.93;;
52530;SDS011;38441;52.894;6.040;2023-12-04T04:27:39;23.60;;;13.43;;
52530;SDS011;38441;52.894;6.040;2023-12-04T04:30:06;20.48;;;12.13;;
52530;SDS011;38441;52.894;6.040;2023-12-04T04:32:32;23.70;;;13.05;;
52530;SDS011;38441;52.894;6.040;2023-12-04T04:34:58;24.70;;;12.93;;
52530;SDS011;38441;52.894;6.040;2023-12-04T04:37:24;24.17;;;13.95;;
52530;SDS011;38441;52.894;6.040;2023-12-04T04:39:50;20.83;;;12.70;;
52530;SDS011;38441;52.894;6.040;2023-12-04T04:42:16;21.98;;;12.98;;
52530;SDS011;38441;52.894;6.040;2023-12-04T04:44:42;20.10;;;11.80;;
52530;SDS011;38441;52.894;6.040;2023-12-04T04:47:08;19.85;;;11.95;;
52530;SDS011;38441;52.894;6.040;2023-12-04T04:49:34;20.92;;;12.63;;
52530;SDS011;38441;52.894;6.040;2023-12-04T04:52:00;21.20;;;12.85;;
52530;SDS011;38441;52.894;6.040;2023-12-04T04:54:25;21.77;;;12.20;;
52530;SDS011;38441;52.894;6.040;2023-12-04T04:56:51;20.85;;;11.93;;
52530;SDS011;38441;52.894;6.040;2023-12-04T04:59:16;22.85;;;12.10;;
52530;SDS011;38441;52.894;6.040;2023-12-04T05:01:42;18.27;;;11.30;;
52530;SDS011;38441;52.894;6.040;2023-12-04T05:04:08;20.08;;;11.77;;
52530;SDS011;38441;52.894;6.040;2023-12-04T05:06:34;20.65;;;11.38;;
52530;SDS011;38441;52.894;6.040;2023-12-04T05:09:00;21.63;;;12.15;;
52530;SDS011;38441;52.894;6.040;2023-12-04T05:11:26;19.95;;;11.88;;
52530;SDS011;38441;52.894;6.040;2023-12-04T05:13:52;21.42;;;12.07;;
52530;SDS011;38441;52.894;6.040;2023-12-04T05:16:18;19.23;;;11.07;;
52530;SDS011;38441;52.894;6.040;2023-12-04T05:18:44;20.05;;;11.75;;
52530;SDS011;38441;52.894;6.040;2023-12-04T05:21:11;20.15;;;12.23;;
52530;SDS011;38441;52.894;6.040;2023-12-04T05:23:37;19.38;;;11.25;;
52530;SDS011;38441;52.894;6.040;2023-12-04T05:26:03;21.30;;;11.80;;
52530;SDS011;38441;52.894;6.040;2023-12-04T05:28:30;17.75;;;10.75;;
52530;SDS011;38441;52.894;6.040;2023-12-04T05:30:56;19.67;;;11.48;;
52530;SDS011;38441;52.894;6.040;2023-12-04T05:33:22;19.67;;;10.98;;
52530;SDS011;38441;52.894;6.040;2023-12-04T05:35:48;21.13;;;11.55;;
52530;SDS011;38441;52.894;6.040;2023-12-04T05:38:17;20.27;;;11.25;;
52530;SDS011;38441;52.894;6.040;2023-12-04T05:40:43;17.48;;;10.63;;
52530;SDS011;38441;52.894;6.040;2023-12-04T05:43:09;19.15;;;11.27;;
52530;SDS011;38441;52.894;6.040;2023-12-04T05:45:35;18.95;;;10.57;;
52530;SDS011;38441;52.894;6.040;2023-12-04T05:48:01;20.15;;;11.18;;
52530;SDS011;38441;52.894;6.040;2023-12-04T05:50:27;20.95;;;11.73;;
52530;SDS011;38441;52.894;6.040;2023-12-04T05:52:53;18.60;;;10.98;;
52530;SDS011;38441;52.894;6.040;2023-12-04T05:55:19;21.95;;;12.85;;
52530;SDS011;38441;52.894;6.040;2023-12-04T05:57:45;15.85;;;9.88;;
52530;SDS011;38441;52.894;6.040;2023-12-04T06:00:11;18.85;;;10.77;;
52530;SDS011;38441;52.894;6.040;2023-12-04T06:02:41;21.25;;;11.23;;
52530;SDS011;38441;52.894;6.040;2023-12-04T06:05:07;18.58;;;11.18;;
52530;SDS011;38441;52.894;6.040;2023-12-04T06:07:34;18.17;;;10.85;;
52530;SDS011;38441;52.894;6.040;2023-12-04T06:10:00;15.75;;;10.02;;
52530;SDS011;38441;52.894;6.040;2023-12-04T06:12:26;18.73;;;10.52;;
52530;SDS011;38441;52.894;6.040;2023-12-04T06:14:52;16.35;;;10.43;;
52530;SDS011;38441;52.894;6.040;2023-12-04T06:17:17;18.20;;;10.38;;
52530;SDS011;38441;52.894;6.040;2023-12-04T06:19:45;18.00;;;10.27;;
52530;SDS011;38441;52.894;6.040;2023-12-04T06:22:23;18.88;;;11.40;;
52530;SDS011;38441;52.894;6.040;2023-12-04T06:24:50;18.45;;;9.98;;
52530;SDS011;38441;52.894;6.040;2023-12-04T06:27:17;18.20;;;11.13;;
52530;SDS011;38441;52.894;6.040;2023-12-04T06:29:46;15.90;;;10.50;;
52530;SDS011;38441;52.894;6.040;2023-12-04T06:32:13;19.55;;;10.73;;
52530;SDS011;38441;52.894;6.040;2023-12-04T06:34:40;17.15;;;10.23;;
52530;SDS011;38441;52.894;6.040;2023-12-04T06:37:09;16.55;;;10.05;;
52530;SDS011;38441;52.894;6.040;2023-12-04T06:39:36;18.02;;;10.75;;
52530;SDS011;38441;52.894;6.040;2023-12-04T06:42:04;15.13;;;9.38;;
52530;SDS011;38441;52.894;6.040;2023-12-04T06:44:30;15.93;;;9.88;;
52530;SDS011;38441;52.894;6.040;2023-12-04T06:46:56;18.17;;;9.88;;
52530;SDS011;38441;52.894;6.040;2023-12-04T06:49:24;15.40;;;9.70;;
52530;SDS011;38441;52.894;6.040;2023-12-04T06:51:52;18.38;;;10.65;;
52530;SDS011;38441;52.894;6.040;2023-12-04T06:54:18;18.55;;;10.40;;
52530;SDS011;38441;52.894;6.040;2023-12-04T06:56:44;16.35;;;10.00;;
52530;SDS011;38441;52.894;6.040;2023-12-04T06:59:10;17.75;;;9.98;;
52530;SDS011;38441;52.894;6.040;2023-12-04T07:01:36;16.25;;;10.05;;
52530;SDS011;38441;52.894;6.040;2023-12-04T07:04:02;15.93;;;9.30;;
52530;SDS011;38441;52.894;6.040;2023-12-04T07:06:35;16.02;;;9.68;;
52530;SDS011;38441;52.894;6.040;2023-12-04T07:09:01;16.08;;;9.70;;
52530;SDS011;38441;52.894;6.040;2023-12-04T07:11:27;18.23;;;9.57;;
52530;SDS011;38441;52.894;6.040;2023-12-04T07:13:52;16.73;;;10.20;;
52530;SDS011;38441;52.894;6.040;2023-12-04T07:16:18;15.98;;;10.07;;
52530;SDS011;38441;52.894;6.040;2023-12-04T07:18:45;14.75;;;8.68;;
52530;SDS011;38441;52.894;6.040;2023-12-04T07:21:11;16.15;;;8.93;;
52530;SDS011;38441;52.894;6.040;2023-12-04T07:23:37;15.18;;;9.50;;
52530;SDS011;38441;52.894;6.040;2023-12-04T07:26:03;16.52;;;9.40;;
52530;SDS011;38441;52.894;6.040;2023-12-04T07:28:29;14.65;;;8.95;;
52530;SDS011;38441;52.894;6.040;2023-12-04T07:30:55;15.32;;;8.38;;
52530;SDS011;38441;52.894;6.040;2023-12-04T07:33:21;13.25;;;8.18;;
52530;SDS011;38441;52.894;6.040;2023-12-04T07:35:47;12.55;;;7.82;;
52530;SDS011;38441;52.894;6.040;2023-12-04T07:38:13;13.18;;;8.10;;
52530;SDS011;38441;52.894;6.040;2023-12-04T07:40:39;15.00;;;8.18;;
52530;SDS011;38441;52.894;6.040;2023-12-04T07:43:05;14.77;;;8.57;;
52530;SDS011;38441;52.894;6.040;2023-12-04T07:45:31;15.07;;;8.20;;
52530;SDS011;38441;52.894;6.040;2023-12-04T07:47:57;13.70;;;8.00;;
52530;SDS011;38441;52.894;6.040;2023-12-04T07:50:23;11.35;;;7.72;;
52530;SDS011;38441;52.894;6.040;2023-12-04T07:52:50;14.50;;;8.20;;
52530;SDS011;38441;52.894;6.040;2023-12-04T07:55:15;13.05;;;7.47;;
52530;SDS011;38441;52.894;6.040;2023-12-04T07:57:41;13.48;;;7.95;;
52530;SDS011;38441;52.894;6.040;2023-12-04T08:00:07;14.13;;;7.75;;
52530;SDS011;38441;52.894;6.040;2023-12-04T08:02:33;13.80;;;7.80;;
52530;SDS011;38441;52.894;6.040;2023-12-04T08:04:59;12.82;;;7.97;;
52530;SDS011;38441;52.894;6.040;2023-12-04T08:07:25;14.73;;;7.97;;
52530;SDS011;38441;52.894;6.040;2023-12-04T08:09:51;13.27;;;7.65;;
52530;SDS011;38441;52.894;6.040;2023-12-04T08:12:18;12.55;;;7.88;;
52530;SDS011;38441;52.894;6.040;2023-12-04T08:14:44;13.40;;;7.40;;
52530;SDS011;38441;52.894;6.040;2023-12-04T08:17:11;13.68;;;8.00;;
52530;SDS011;38441;52.894;6.040;2023-12-04T08:19:37;12.50;;;8.07;;
52530;SDS011;38441;52.894;6.040;2023-12-04T08:22:04;12.38;;;7.28;;
52530;SDS011;38441;52.894;6.040;2023-12-04T08:24:30;12.15;;;7.85;;
52530;SDS011;38441;52.894;6.040;2023-12-04T08:26:59;11.20;;;7.45;;
52530;SDS011;38441;52.894;6.040;2023-12-04T08:29:24;10.77;;;6.97;;
52530;SDS011;38441;52.894;6.040;2023-12-04T08:31:50;11.82;;;7.30;;
52530;SDS011;38441;52.894;6.040;2023-12-04T08:34:16;13.30;;;8.38;;
52530;SDS011;38441;52.894;6.040;2023-12-04T08:36:42;12.75;;;7.13;;
52530;SDS011;38441;52.894;6.040;2023-12-04T08:39:08;13.63;;;7.78;;
52530;SDS011;38441;52.894;6.040;2023-12-04T08:41:34;11.85;;;6.70;;
52530;SDS011;38441;52.894;6.040;2023-12-04T08:44:00;11.10;;;6.85;;
52530;SDS011;38441;52.894;6.040;2023-12-04T08:46:26;10.73;;;6.60;;
52530;SDS011;38441;52.894;6.040;2023-12-04T08:48:52;10.15;;;6.22;;
52530;SDS011;38441;52.894;6.040;2023-12-04T08:51:18;11.88;;;6.68;;
52530;SDS011;38441;52.894;6.040;2023-12-04T08:53:44;11.15;;;6.47;;
52530;SDS011;38441;52.894;6.040;2023-12-04T08:56:10;10.63;;;6.70;;
52530;SDS011;38441;52.894;6.040;2023-12-04T08:58:36;13.27;;;6.88;;
52530;SDS011;38441;52.894;6.040;2023-12-04T09:01:03;12.18;;;7.22;;
52530;SDS011;38441;52.894;6.040;2023-12-04T09:03:30;13.55;;;6.40;;
52530;SDS011;38441;52.894;6.040;2023-12-04T09:05:59;11.00;;;6.40;;
52530;SDS011;38441;52.894;6.040;2023-12-04T09:08:24;8.65;;;5.65;;
52530;SDS011;38441;52.894;6.040;2023-12-04T09:10:52;10.68;;;6.30;;
52530;SDS011;38441;52.894;6.040;2023-12-04T09:13:18;10.98;;;6.68;;
52530;SDS011;38441;52.894;6.040;2023-12-04T09:15:43;9.63;;;6.40;;
52530;SDS011;38441;52.894;6.040;2023-12-04T09:18:09;9.02;;;5.53;;
52530;SDS011;38441;52.894;6.040;2023-12-04T09:20:35;11.48;;;6.55;;
52530;SDS011;38441;52.894;6.040;2023-12-04T09:23:01;10.55;;;6.43;;
52530;SDS011;38441;52.894;6.040;2023-12-04T09:25:26;10.82;;;6.30;;
52530;SDS011;38441;52.894;6.040;2023-12-04T09:27:52;10.18;;;5.75;;
52530;SDS011;38441;52.894;6.040;2023-12-04T09:30:18;8.25;;;5.47;;
52530;SDS011;38441;52.894;6.040;2023-12-04T09:32:44;9.88;;;6.18;;
52530;SDS011;38441;52.894;6.040;2023-12-04T09:35:10;9.27;;;5.78;;
52530;SDS011;38441;52.894;6.040;2023-12-04T09:37:35;8.57;;;5.22;;
52530;SDS011;38441;52.894;6.040;2023-12-04T09:40:01;9.90;;;5.40;;
52530;SDS011;38441;52.894;6.040;2023-12-04T09:42:27;9.30;;;5.70;;
52530;SDS011;38441;52.894;6.040;2023-12-04T09:44:55;9.10;;;5.70;;
52530;SDS011;38441;52.894;6.040;2023-12-04T09:47:22;10.65;;;6.10;;
52530;SDS011;38441;52.894;6.040;2023-12-04T09:49:49;8.85;;;4.90;;
52530;SDS011;38441;52.894;6.040;2023-12-04T09:52:18;9.30;;;5.90;;
52530;SDS011;38441;52.894;6.040;2023-12-04T09:54:44;8.50;;;5.75;;
52530;SDS011;38441;52.894;6.040;2023-12-04T09:57:10;8.75;;;5.55;;
52530;SDS011;38441;52.894;6.040;2023-12-04T09:59:38;10.23;;;6.05;;
52530;SDS011;38441;52.894;6.040;2023-12-04T10:02:04;9.30;;;5.85;;
52530;SDS011;38441;52.894;6.040;2023-12-04T10:04:31;9.57;;;5.22;;
52530;SDS011;38441;52.894;6.040;2023-12-04T10:06:58;9.80;;;6.22;;
52530;SDS011;38441;52.894;6.040;2023-12-04T10:09:24;9.95;;;6.18;;
52530;SDS011;38441;52.894;6.040;2023-12-04T10:11:50;10.00;;;5.60;;
52530;SDS011;38441;52.894;6.040;2023-12-04T10:14:20;9.10;;;5.60;;
52530;SDS011;38441;52.894;6.040;2023-12-04T10:16:46;9.93;;;5.60;;
52530;SDS011;38441;52.894;6.040;2023-12-04T10:19:17;9.73;;;5.75;;
52530;SDS011;38441;52.894;6.040;2023-12-04T10:21:51;9.23;;;5.75;;
52530;SDS011;38441;52.894;6.040;2023-12-04T10:24:28;10.30;;;5.90;;
52530;SDS011;38441;52.894;6.040;2023-12-04T10:26:58;8.38;;;5.18;;
52530;SDS011;38441;52.894;6.040;2023-12-04T10:29:26;8.48;;;5.30;;
52530;SDS011;38441;52.894;6.040;2023-12-04T10:31:54;9.90;;;5.50;;
52530;SDS011;38441;52.894;6.040;2023-12-04T10:34:21;11.88;;;6.05;;
52530;SDS011;38441;52.894;6.040;2023-12-04T10:36:51;9.32;;;5.22;;
52530;SDS011;38441;52.894;6.040;2023-12-04T10:39:17;9.90;;;5.25;;
52530;SDS011;38441;52.894;6.040;2023-12-04T10:41:43;9.20;;;5.40;;
52530;SDS011;38441;52.894;6.040;2023-12-04T10:44:09;8.93;;;5.30;;
52530;SDS011;38441;52.894;6.040;2023-12-04T10:46:40;8.68;;;5.75;;
52530;SDS011;38441;52.894;6.040;2023-12-04T10:49:08;10.18;;;6.18;;
52530;SDS011;38441;52.894;6.040;2023-12-04T10:51:34;9.25;;;5.47;;
52530;SDS011;38441;52.894;6.040;2023-12-04T10:54:01;9.63;;;5.75;;
52530;SDS011;38441;52.894;6.040;2023-12-04T10:56:31;9.45;;;5.10;;
52530;SDS011;38441;52.894;6.040;2023-12-04T10:59:06;9.13;;;5.72;;
52530;SDS011;38441;52.894;6.040;2023-12-04T11:01:37;10.60;;;4.93;;
52530;SDS011;38441;52.894;6.040;2023-12-04T11:04:07;8.75;;;5.85;;
52530;SDS011;38441;52.894;6.040;2023-12-04T11:06:37;9.50;;;5.63;;
52530;SDS011;38441;52.894;6.040;2023-12-04T11:09:05;8.50;;;5.55;;
52530;SDS011;38441;52.894;6.040;2023-12-04T11:11:33;8.88;;;5.38;;
52530;SDS011;38441;52.894;6.040;2023-12-04T11:14:01;9.00;;;5.60;;
52530;SDS011;38441;52.894;6.040;2023-12-04T11:19:18;9.25;;;5.78;;
52530;SDS011;38441;52.894;6.040;2023-12-04T11:21:54;10.18;;;6.35;;
52530;SDS011;38441;52.894;6.040;2023-12-04T11:24:25;7.63;;;4.88;;
52530;SDS011;38441;52.894;6.040;2023-12-04T11:26:51;8.93;;;5.75;;
52530;SDS011;38441;52.894;6.040;2023-12-04T11:29:18;11.27;;;5.63;;
52530;SDS011;38441;52.894;6.040;2023-12-04T11:31:44;8.50;;;5.03;;
52530;SDS011;38441;52.894;6.040;2023-12-04T11:34:11;8.85;;;5.13;;
52530;SDS011;38441;52.894;6.040;2023-12-04T11:36:37;7.85;;;5.25;;
52530;SDS011;38441;52.894;6.040;2023-12-04T11:39:08;8.63;;;5.15;;
52530;SDS011;38441;52.894;6.040;2023-12-04T11:41:37;9.13;;;5.28;;
52530;SDS011;38441;52.894;6.040;2023-12-04T11:44:05;9.45;;;5.50;;
52530;SDS011;38441;52.894;6.040;2023-12-04T11:46:38;11.82;;;5.97;;
52530;SDS011;38441;52.894;6.040;2023-12-04T11:51:53;12.07;;;5.80;;
52530;SDS011;38441;52.894;6.040;2023-12-04T11:54:21;10.45;;;5.72;;
52530;SDS011;38441;52.894;6.040;2023-12-04T11:56:56;9.93;;;5.70;;
52530;SDS011;38441;52.894;6.040;2023-12-04T11:59:22;8.63;;;5.18;;
52530;SDS011;38441;52.894;6.040;2023-12-04T12:01:53;8.77;;;4.80;;
52530;SDS011;38441;52.894;6.040;2023-12-04T12:04:21;12.77;;;5.47;;
52530;SDS011;38441;52.894;6.040;2023-12-04T12:06:47;12.23;;;5.28;;
52530;SDS011;38441;52.894;6.040;2023-12-04T12:09:13;10.25;;;5.70;;
52530;SDS011;38441;52.894;6.040;2023-12-04T12:11:39;13.73;;;5.97;;
52530;SDS011;38441;52.894;6.040;2023-12-04T12:14:05;10.88;;;5.72;;
52530;SDS011;38441;52.894;6.040;2023-12-04T12:16:31;9.30;;;5.20;;
52530;SDS011;38441;52.894;6.040;2023-12-04T12:18:57;9.50;;;5.55;;
52530;SDS011;38441;52.894;6.040;2023-12-04T12:21:23;12.27;;;5.85;;
52530;SDS011;38441;52.894;6.040;2023-12-04T12:23:50;11.15;;;5.38;;
52530;SDS011;38441;52.894;6.040;2023-12-04T12:26:16;13.20;;;5.28;;
52530;SDS011;38441;52.894;6.040;2023-12-04T12:28:42;11.02;;;5.57;;
52530;SDS011;38441;52.894;6.040;2023-12-04T12:31:10;8.95;;;5.00;;
52530;SDS011;38441;52.894;6.040;2023-12-04T12:33:36;9.20;;;5.18;;
52530;SDS011;38441;52.894;6.040;2023-12-04T12:36:02;8.98;;;4.88;;
52530;SDS011;38441;52.894;6.040;2023-12-04T12:38:29;8.60;;;4.90;;
52530;SDS011;38441;52.894;6.040;2023-12-04T12:40:59;9.40;;;5.45;;
52530;SDS011;38441;52.894;6.040;2023-12-04T12:43:27;9.52;;;5.30;;
52530;SDS011;38441;52.894;6.040;2023-12-04T12:45:53;9.48;;;4.75;;
52530;SDS011;38441;52.894;6.040;2023-12-04T12:48:18;9.32;;;4.72;;
52530;SDS011;38441;52.894;6.040;2023-12-04T12:50:46;8.35;;;5.05;;
52530;SDS011;38441;52.894;6.040;2023-12-04T12:53:13;10.20;;;5.60;;
52530;SDS011;38441;52.894;6.040;2023-12-04T12:55:42;10.38;;;5.60;;
52530;SDS011;38441;52.894;6.040;2023-12-04T12:58:11;8.27;;;4.90;;
52530;SDS011;38441;52.894;6.040;2023-12-04T13:00:45;8.35;;;5.05;;
52530;SDS011;38441;52.894;6.040;2023-12-04T13:03:15;7.70;;;4.97;;
52530;SDS011;38441;52.894;6.040;2023-12-04T13:05:42;9.27;;;5.43;;
52530;SDS011;38441;52.894;6.040;2023-12-04T13:08:07;7.90;;;4.53;;
52530;SDS011;38441;52.894;6.040;2023-12-04T13:10:33;8.05;;;4.93;;
52530;SDS011;38441;52.894;6.040;2023-12-04T13:12:59;8.75;;;5.15;;
52530;SDS011;38441;52.894;6.040;2023-12-04T13:15:25;8.38;;;5.05;;
52530;SDS011;38441;52.894;6.040;2023-12-04T13:17:51;9.48;;;5.40;;
52530;SDS011;38441;52.894;6.040;2023-12-04T13:20:17;7.82;;;4.85;;
52530;SDS011;38441;52.894;6.040;2023-12-04T13:22:43;7.90;;;5.10;;
52530;SDS011;38441;52.894;6.040;2023-12-04T13:25:08;9.63;;;4.55;;
52530;SDS011;38441;52.894;6.040;2023-12-04T13:27:38;9.23;;;5.30;;
52530;SDS011;38441;52.894;6.040;2023-12-04T13:30:05;8.43;;;4.90;;
52530;SDS011;38441;52.894;6.040;2023-12-04T13:32:31;7.90;;;5.15;;
52530;SDS011;38441;52.894;6.040;2023-12-04T13:34:58;6.97;;;4.55;;
52530;SDS011;38441;52.894;6.040;2023-12-04T13:37:24;7.35;;;5.00;;
52530;SDS011;38441;52.894;6.040;2023-12-04T13:39:53;8.93;;;5.22;;
52530;SDS011;38441;52.894;6.040;2023-12-04T13:42:26;8.75;;;5.25;;
52530;SDS011;38441;52.894;6.040;2023-12-04T13:45:11;8.93;;;5.50;;
52530;SDS011;38441;52.894;6.040;2023-12-04T13:47:39;8.15;;;4.90;;
52530;SDS011;38441;52.894;6.040;2023-12-04T13:50:06;8.25;;;4.95;;
52530;SDS011;38441;52.894;6.040;2023-12-04T13:52:34;7.68;;;5.20;;
52530;SDS011;38441;52.894;6.040;2023-12-04T13:55:00;9.60;;;5.57;;
52530;SDS011;38441;52.894;6.040;2023-12-04T13:57:27;9.10;;;5.20;;
52530;SDS011;38441;52.894;6.040;2023-12-04T13:59:58;8.55;;;4.70;;
52530;SDS011;38441;52.894;6.040;2023-12-04T14:02:24;8.85;;;5.07;;
52530;SDS011;38441;52.894;6.040;2023-12-04T14:04:51;9.15;;;5.30;;
52530;SDS011;38441;52.894;6.040;2023-12-04T14:07:17;9.02;;;5.30;;
52530;SDS011;38441;52.894;6.040;2023-12-04T14:09:43;8.52;;;5.38;;
52530;SDS011;38441;52.894;6.040;2023-12-04T14:12:12;7.78;;;5.13;;
52530;SDS011;38441;52.894;6.040;2023-12-04T14:14:41;8.70;;;5.03;;
52530;SDS011;38441;52.894;6.040;2023-12-04T14:17:07;8.15;;;4.78;;
52530;SDS011;38441;52.894;6.040;2023-12-04T14:19:34;8.20;;;5.03;;
52530;SDS011;38441;52.894;6.040;2023-12-04T14:22:00;8.80;;;5.63;;
52530;SDS011;38441;52.894;6.040;2023-12-04T14:24:26;8.48;;;5.10;;
52530;SDS011;38441;52.894;6.040;2023-12-04T14:26:55;8.43;;;5.22;;
52530;SDS011;38441;52.894;6.040;2023-12-04T14:29:21;7.32;;;4.68;;
52530;SDS011;38441;52.894;6.040;2023-12-04T14:31:47;8.07;;;5.13;;
52530;SDS011;38441;52.894;6.040;2023-12-04T14:34:13;8.25;;;4.57;;
52530;SDS011;38441;52.894;6.040;2023-12-04T14:36:39;8.13;;;5.28;;
52530;SDS011;38441;52.894;6.040;2023-12-04T14:39:05;8.45;;;5.13;;